sensor_id;sensor_type;location;lat;lon;timestamp;temperature;humidity
46508;DHT22;32223;53.654;10.014;2023-09-18T00:00:55;18.10;99.90
46508;DHT22;32223;53.654;10.014;2023-09-18T00:03:23;18.10;99.90
46508;DHT22;32223;53.654;10.014;2023-09-18T00:05:52;18.10;99.90
46508;DHT22;32223;53.654;10.014;2023-09-18T00:08:19;18.00;99.90
46508;DHT22;32223;53.654;10.014;2023-09-18T00:10:50;18.00;99.90
46508;DHT22;32223;53.654;10.014;2023-09-18T00:13:16;18.00;99.90
46508;DHT22;32223;53.654;10.014;2023-09-18T00:15:42;18.00;99.90
46508;DHT22;32223;53.654;10.014;2023-09-18T00:18:10;18.00;99.90
46508;DHT22;32223;53.654;10.014;2023-09-18T00:20:36;18.00;99.90
46508;DHT22;32223;53.654;10.014;2023-09-18T00:23:01;18.00;99.90
46508;DHT22;32223;53.654;10.014;2023-09-18T00:25:28;18.00;99.90
46508;DHT22;32223;53.654;10.014;2023-09-18T00:27:53;17.90;99.90
46508;DHT22;32223;53.654;10.014;2023-09-18T00:30:19;17.90;99.90
46508;DHT22;32223;53.654;10.014;2023-09-18T00:32:44;17.90;99.90
46508;DHT22;32223;53.654;10.014;2023-09-18T00:35:12;17.90;99.90
46508;DHT22;32223;53.654;10.014;2023-09-18T00:37:38;17.90;99.90
46508;DHT22;32223;53.654;10.014;2023-09-18T00:40:06;17.90;99.90
46508;DHT22;32223;53.654;10.014;2023-09-18T00:42:32;17.90;99.90
46508;DHT22;32223;53.654;10.014;2023-09-18T00:44:57;17.90;99.90
46508;DHT22;32223;53.654;10.014;2023-09-18T00:47:23;17.90;99.90
46508;DHT22;32223;53.654;10.014;2023-09-18T00:49:50;17.90;99.90
46508;DHT22;32223;53.654;10.014;2023-09-18T00:52:17;17.80;99.90
46508;DHT22;32223;53.654;10.014;2023-09-18T00:54:43;17.80;99.90
46508;DHT22;32223;53.654;10.014;2023-09-18T00:57:10;17.80;99.90
46508;DHT22;32223;53.654;10.014;2023-09-18T00:59:39;17.80;99.90
46508;DHT22;32223;53.654;10.014;2023-09-18T01:02:05;17.80;99.90
46508;DHT22;32223;53.654;10.014;2023-09-18T01:04:31;17.80;99.90
46508;DHT22;32223;53.654;10.014;2023-09-18T01:06:58;17.80;99.90
46508;DHT22;32223;53.654;10.014;2023-09-18T01:09:26;17.80;99.90
46508;DHT22;32223;53.654;10.014;2023-09-18T01:12:17;17.70;99.90
46508;DHT22;32223;53.654;10.014;2023-09-18T01:14:55;17.70;99.90
46508;DHT22;32223;53.654;10.014;2023-09-18T01:17:22;17.70;99.90
46508;DHT22;32223;53.654;10.014;2023-09-18T01:19:48;17.70;99.90
46508;DHT22;32223;53.654;10.014;2023-09-18T01:22:15;17.70;99.90
46508;DHT22;32223;53.654;10.014;2023-09-18T01:24:42;17.70;99.90
46508;DHT22;32223;53.654;10.014;2023-09-18T01:27:13;17.70;99.90
46508;DHT22;32223;53.654;10.014;2023-09-18T01:29:39;17.70;99.90
46508;DHT22;32223;53.654;10.014;2023-09-18T01:32:05;17.70;99.90
46508;DHT22;32223;53.654;10.014;2023-09-18T01:34:33;17.60;99.90
46508;DHT22;32223;53.654;10.014;2023-09-18T01:37:02;17.60;99.90
46508;DHT22;32223;53.654;10.014;2023-09-18T01:39:29;17.60;99.90
46508;DHT22;32223;53.654;10.014;2023-09-18T01:42:01;17.50;99.90
46508;DHT22;32223;53.654;10.014;2023-09-18T01:44:32;17.50;99.90
46508;DHT22;32223;53.654;10.014;2023-09-18T01:46:59;17.50;99.90
46508;DHT22;32223;53.654;10.014;2023-09-18T01:49:35;17.50;99.90
46508;DHT22;32223;53.654;10.014;2023-09-18T01:52:01;17.50;99.90
46508;DHT22;32223;53.654;10.014;2023-09-18T01:54:27;17.50;99.90
46508;DHT22;32223;53.654;10.014;2023-09-18T01:56:53;17.50;99.90
46508;DHT22;32223;53.654;10.014;2023-09-18T01:59:20;17.40;99.90
46508;DHT22;32223;53.654;10.014;2023-09-18T02:01:46;17.40;99.90
46508;DHT22;32223;53.654;10.014;2023-09-18T02:04:11;17.40;99.90
46508;DHT22;32223;53.654;10.014;2023-09-18T02:06:37;17.40;99.90
46508;DHT22;32223;53.654;10.014;2023-09-18T02:09:02;17.40;99.90
46508;DHT22;32223;53.654;10.014;2023-09-18T02:11:33;17.40;99.90
46508;DHT22;32223;53.654;10.014;2023-09-18T02:13:59;17.40;99.90
46508;DHT22;32223;53.654;10.014;2023-09-18T02:16:26;17.40;99.90
46508;DHT22;32223;53.654;10.014;2023-09-18T02:18:54;17.40;99.90
46508;DHT22;32223;53.654;10.014;2023-09-18T02:21:21;17.30;99.90
46508;DHT22;32223;53.654;10.014;2023-09-18T02:23:51;17.30;99.90
46508;DHT22;32223;53.654;10.014;2023-09-18T02:26:18;17.40;99.90
46508;DHT22;32223;53.654;10.014;2023-09-18T02:28:43;17.40;99.90
46508;DHT22;32223;53.654;10.014;2023-09-18T02:31:09;17.40;99.90
46508;DHT22;32223;53.654;10.014;2023-09-18T02:33:36;17.40;99.90
46508;DHT22;32223;53.654;10.014;2023-09-18T02:36:02;17.40;99.90
46508;DHT22;32223;53.654;10.014;2023-09-18T02:38:28;17.40;99.90
46508;DHT22;32223;53.654;10.014;2023-09-18T02:40:53;17.30;99.90
46508;DHT22;32223;53.654;10.014;2023-09-18T02:43:20;17.30;99.90
46508;DHT22;32223;53.654;10.014;2023-09-18T02:45:46;17.30;99.90
46508;DHT22;32223;53.654;10.014;2023-09-18T02:48:12;17.30;99.90
46508;DHT22;32223;53.654;10.014;2023-09-18T02:50:37;17.30;99.90
46508;DHT22;32223;53.654;10.014;2023-09-18T02:53:06;17.20;99.90
46508;DHT22;32223;53.654;10.014;2023-09-18T02:55:32;17.20;99.90
46508;DHT22;32223;53.654;10.014;2023-09-18T02:57:57;17.20;99.90
46508;DHT22;32223;53.654;10.014;2023-09-18T03:00:24;17.20;99.90
46508;DHT22;32223;53.654;10.014;2023-09-18T03:02:49;17.20;99.90
46508;DHT22;32223;53.654;10.014;2023-09-18T03:05:15;17.20;99.90
46508;DHT22;32223;53.654;10.014;2023-09-18T03:07:41;17.20;99.90
46508;DHT22;32223;53.654;10.014;2023-09-18T03:10:07;17.20;99.90
46508;DHT22;32223;53.654;10.014;2023-09-18T03:12:33;17.20;99.90
46508;DHT22;32223;53.654;10.014;2023-09-18T03:14:59;17.20;99.90
46508;DHT22;32223;53.654;10.014;2023-09-18T03:17:24;17.20;99.90
46508;DHT22;32223;53.654;10.014;2023-09-18T03:19:50;17.20;99.90
46508;DHT22;32223;53.654;10.014;2023-09-18T03:22:16;17.20;99.90
46508;DHT22;32223;53.654;10.014;2023-09-18T03:24:41;17.20;99.90
46508;DHT22;32223;53.654;10.014;2023-09-18T03:27:07;17.20;99.90
46508;DHT22;32223;53.654;10.014;2023-09-18T03:29:32;17.20;99.90
46508;DHT22;32223;53.654;10.014;2023-09-18T03:31:58;17.30;99.90
46508;DHT22;32223;53.654;10.014;2023-09-18T03:34:25;17.20;99.90
46508;DHT22;32223;53.654;10.014;2023-09-18T03:36:53;17.20;99.90
46508;DHT22;32223;53.654;10.014;2023-09-18T03:39:19;17.20;99.90
46508;DHT22;32223;53.654;10.014;2023-09-18T03:41:45;17.20;99.90
46508;DHT22;32223;53.654;10.014;2023-09-18T03:44:11;17.20;99.90
46508;DHT22;32223;53.654;10.014;2023-09-18T03:46:37;17.20;99.90
46508;DHT22;32223;53.654;10.014;2023-09-18T03:49:03;17.10;99.90
46508;DHT22;32223;53.654;10.014;2023-09-18T03:51:29;17.10;99.90
46508;DHT22;32223;53.654;10.014;2023-09-18T03:53:55;17.10;99.90
46508;DHT22;32223;53.654;10.014;2023-09-18T03:56:21;17.10;99.90
46508;DHT22;32223;53.654;10.014;2023-09-18T03:58:47;17.10;99.90
46508;DHT22;32223;53.654;10.014;2023-09-18T04:01:15;17.00;99.90
46508;DHT22;32223;53.654;10.014;2023-09-18T04:03:41;17.00;99.90
46508;DHT22;32223;53.654;10.014;2023-09-18T04:06:07;17.00;99.90
46508;DHT22;32223;53.654;10.014;2023-09-18T04:08:32;17.00;99.90
46508;DHT22;32223;53.654;10.014;2023-09-18T04:10:58;17.00;99.90
46508;DHT22;32223;53.654;10.014;2023-09-18T04:13:24;17.00;99.90
46508;DHT22;32223;53.654;10.014;2023-09-18T04:15:50;17.00;99.90
46508;DHT22;32223;53.654;10.014;2023-09-18T04:18:17;16.90;99.90
46508;DHT22;32223;53.654;10.014;2023-09-18T04:20:42;16.90;99.90
46508;DHT22;32223;53.654;10.014;2023-09-18T04:23:27;16.90;99.90
46508;DHT22;32223;53.654;10.014;2023-09-18T04:25:53;16.80;99.90
46508;DHT22;32223;53.654;10.014;2023-09-18T04:28:21;16.80;99.90
46508;DHT22;32223;53.654;10.014;2023-09-18T04:30:47;16.70;99.90
46508;DHT22;32223;53.654;10.014;2023-09-18T04:33:14;16.80;99.90
46508;DHT22;32223;53.654;10.014;2023-09-18T04:35:40;16.80;99.90
46508;DHT22;32223;53.654;10.014;2023-09-18T04:38:07;16.80;99.90
46508;DHT22;32223;53.654;10.014;2023-09-18T04:40:34;16.70;99.90
46508;DHT22;32223;53.654;10.014;2023-09-18T04:43:00;16.70;99.90
46508;DHT22;32223;53.654;10.014;2023-09-18T04:45:26;16.70;99.90
46508;DHT22;32223;53.654;10.014;2023-09-18T04:47:52;16.70;99.90
46508;DHT22;32223;53.654;10.014;2023-09-18T04:50:18;16.70;99.90
46508;DHT22;32223;53.654;10.014;2023-09-18T04:52:44;16.70;99.90
46508;DHT22;32223;53.654;10.014;2023-09-18T04:55:10;16.70;99.90
46508;DHT22;32223;53.654;10.014;2023-09-18T04:57:37;16.70;99.90
46508;DHT22;32223;53.654;10.014;2023-09-18T05:00:03;16.70;99.90
46508;DHT22;32223;53.654;10.014;2023-09-18T05:02:34;16.60;99.90
46508;DHT22;32223;53.654;10.014;2023-09-18T05:05:00;16.70;99.90
46508;DHT22;32223;53.654;10.014;2023-09-18T05:07:26;16.70;99.90
46508;DHT22;32223;53.654;10.014;2023-09-18T05:09:52;16.70;99.90
46508;DHT22;32223;53.654;10.014;2023-09-18T05:12:17;16.60;99.90
46508;DHT22;32223;53.654;10.014;2023-09-18T05:14:43;16.70;99.90
46508;DHT22;32223;53.654;10.014;2023-09-18T05:17:13;16.70;99.90
46508;DHT22;32223;53.654;10.014;2023-09-18T05:19:39;16.70;99.90
46508;DHT22;32223;53.654;10.014;2023-09-18T05:22:06;16.80;99.90
46508;DHT22;32223;53.654;10.014;2023-09-18T05:24:32;16.80;99.90
46508;DHT22;32223;53.654;10.014;2023-09-18T05:26:57;16.80;99.90
46508;DHT22;32223;53.654;10.014;2023-09-18T05:29:23;16.90;99.90
46508;DHT22;32223;53.654;10.014;2023-09-18T05:31:49;16.90;99.90
46508;DHT22;32223;53.654;10.014;2023-09-18T05:34:15;16.90;99.90
46508;DHT22;32223;53.654;10.014;2023-09-18T05:36:40;17.00;99.90
46508;DHT22;32223;53.654;10.014;2023-09-18T05:39:06;17.00;99.90
46508;DHT22;32223;53.654;10.014;2023-09-18T05:41:41;17.00;99.90
46508;DHT22;32223;53.654;10.014;2023-09-18T05:44:07;17.10;99.90
46508;DHT22;32223;53.654;10.014;2023-09-18T05:46:34;17.10;99.90
46508;DHT22;32223;53.654;10.014;2023-09-18T05:49:00;17.10;99.90
46508;DHT22;32223;53.654;10.014;2023-09-18T05:51:26;17.20;99.90
46508;DHT22;32223;53.654;10.014;2023-09-18T05:53:52;17.20;99.90
46508;DHT22;32223;53.654;10.014;2023-09-18T05:56:18;17.30;99.90
46508;DHT22;32223;53.654;10.014;2023-09-18T05:58:44;17.30;99.90
46508;DHT22;32223;53.654;10.014;2023-09-18T06:01:09;17.30;99.90
46508;DHT22;32223;53.654;10.014;2023-09-18T06:03:36;17.30;99.90
46508;DHT22;32223;53.654;10.014;2023-09-18T06:06:02;17.40;99.90
46508;DHT22;32223;53.654;10.014;2023-09-18T06:08:29;17.40;99.90
46508;DHT22;32223;53.654;10.014;2023-09-18T06:10:56;17.40;99.90
46508;DHT22;32223;53.654;10.014;2023-09-18T06:13:21;17.60;99.90
46508;DHT22;32223;53.654;10.014;2023-09-18T06:15:48;17.70;99.90
46508;DHT22;32223;53.654;10.014;2023-09-18T06:18:14;17.80;99.90
46508;DHT22;32223;53.654;10.014;2023-09-18T06:20:39;17.80;99.90
46508;DHT22;32223;53.654;10.014;2023-09-18T06:23:06;17.90;99.90
46508;DHT22;32223;53.654;10.014;2023-09-18T06:25:32;18.00;99.90
46508;DHT22;32223;53.654;10.014;2023-09-18T06:27:57;18.20;99.90
46508;DHT22;32223;53.654;10.014;2023-09-18T06:30:23;18.20;99.90
46508;DHT22;32223;53.654;10.014;2023-09-18T06:32:49;18.30;99.90
46508;DHT22;32223;53.654;10.014;2023-09-18T06:35:14;18.40;99.90
46508;DHT22;32223;53.654;10.014;2023-09-18T06:37:40;18.50;99.90
46508;DHT22;32223;53.654;10.014;2023-09-18T06:40:06;18.60;99.90
46508;DHT22;32223;53.654;10.014;2023-09-18T06:42:32;18.70;99.90
46508;DHT22;32223;53.654;10.014;2023-09-18T06:44:58;18.70;99.90
46508;DHT22;32223;53.654;10.014;2023-09-18T06:47:24;18.80;99.90
46508;DHT22;32223;53.654;10.014;2023-09-18T06:49:50;18.90;99.90
46508;DHT22;32223;53.654;10.014;2023-09-18T06:52:16;18.90;99.90
46508;DHT22;32223;53.654;10.014;2023-09-18T06:54:42;18.90;99.90
46508;DHT22;32223;53.654;10.014;2023-09-18T06:57:09;19.00;99.90
46508;DHT22;32223;53.654;10.014;2023-09-18T06:59:35;19.00;99.90
46508;DHT22;32223;53.654;10.014;2023-09-18T07:02:01;19.10;99.90
46508;DHT22;32223;53.654;10.014;2023-09-18T07:04:27;19.10;99.90
46508;DHT22;32223;53.654;10.014;2023-09-18T07:06:53;19.20;99.90
46508;DHT22;32223;53.654;10.014;2023-09-18T07:09:19;19.20;99.90
46508;DHT22;32223;53.654;10.014;2023-09-18T07:11:48;19.20;99.90
46508;DHT22;32223;53.654;10.014;2023-09-18T07:14:14;19.30;99.90
46508;DHT22;32223;53.654;10.014;2023-09-18T07:16:40;19.40;99.90
46508;DHT22;32223;53.654;10.014;2023-09-18T07:19:05;19.50;99.90
46508;DHT22;32223;53.654;10.014;2023-09-18T07:21:32;19.50;99.90
46508;DHT22;32223;53.654;10.014;2023-09-18T07:23:58;19.70;99.90
46508;DHT22;32223;53.654;10.014;2023-09-18T07:26:24;19.90;99.90
46508;DHT22;32223;53.654;10.014;2023-09-18T07:28:50;20.00;99.90
46508;DHT22;32223;53.654;10.014;2023-09-18T07:31:15;20.10;99.90
46508;DHT22;32223;53.654;10.014;2023-09-18T07:33:41;20.30;99.90
46508;DHT22;32223;53.654;10.014;2023-09-18T07:36:07;20.30;99.90
46508;DHT22;32223;53.654;10.014;2023-09-18T07:38:32;20.30;99.90
46508;DHT22;32223;53.654;10.014;2023-09-18T07:40:58;20.40;99.90
46508;DHT22;32223;53.654;10.014;2023-09-18T07:43:24;20.50;99.90
46508;DHT22;32223;53.654;10.014;2023-09-18T07:45:50;20.60;99.90
46508;DHT22;32223;53.654;10.014;2023-09-18T07:48:16;20.60;99.90
46508;DHT22;32223;53.654;10.014;2023-09-18T07:50:45;20.70;99.90
46508;DHT22;32223;53.654;10.014;2023-09-18T07:53:12;20.80;99.90
46508;DHT22;32223;53.654;10.014;2023-09-18T07:55:37;20.80;99.90
46508;DHT22;32223;53.654;10.014;2023-09-18T07:58:04;20.90;99.90
46508;DHT22;32223;53.654;10.014;2023-09-18T08:00:30;20.90;99.90
46508;DHT22;32223;53.654;10.014;2023-09-18T08:02:55;21.10;99.90
46508;DHT22;32223;53.654;10.014;2023-09-18T08:05:26;21.10;99.90
46508;DHT22;32223;53.654;10.014;2023-09-18T08:07:57;21.20;99.90
46508;DHT22;32223;53.654;10.014;2023-09-18T08:10:25;21.30;99.90
46508;DHT22;32223;53.654;10.014;2023-09-18T08:12:50;21.30;99.90
46508;DHT22;32223;53.654;10.014;2023-09-18T08:15:19;21.40;99.90
46508;DHT22;32223;53.654;10.014;2023-09-18T08:17:46;21.50;99.90
46508;DHT22;32223;53.654;10.014;2023-09-18T08:20:12;21.50;99.90
46508;DHT22;32223;53.654;10.014;2023-09-18T08:22:39;21.50;99.90
46508;DHT22;32223;53.654;10.014;2023-09-18T08:25:06;21.60;99.90
46508;DHT22;32223;53.654;10.014;2023-09-18T08:27:37;21.60;99.90
46508;DHT22;32223;53.654;10.014;2023-09-18T08:30:07;21.60;99.90
46508;DHT22;32223;53.654;10.014;2023-09-18T08:32:36;21.60;99.90
46508;DHT22;32223;53.654;10.014;2023-09-18T08:35:01;21.60;99.90
46508;DHT22;32223;53.654;10.014;2023-09-18T08:37:27;21.60;99.90
46508;DHT22;32223;53.654;10.014;2023-09-18T08:39:53;21.70;99.90
46508;DHT22;32223;53.654;10.014;2023-09-18T08:42:21;21.70;99.90
46508;DHT22;32223;53.654;10.014;2023-09-18T08:44:51;21.70;99.90
46508;DHT22;32223;53.654;10.014;2023-09-18T08:47:18;21.70;99.90
46508;DHT22;32223;53.654;10.014;2023-09-18T08:49:46;21.70;99.90
46508;DHT22;32223;53.654;10.014;2023-09-18T08:52:14;21.60;99.90
46508;DHT22;32223;53.654;10.014;2023-09-18T08:54:40;21.60;99.90
46508;DHT22;32223;53.654;10.014;2023-09-18T08:57:06;21.60;99.90
46508;DHT22;32223;53.654;10.014;2023-09-18T08:59:35;21.50;99.90
46508;DHT22;32223;53.654;10.014;2023-09-18T09:02:01;21.50;99.90
46508;DHT22;32223;53.654;10.014;2023-09-18T09:04:27;21.50;99.90
46508;DHT22;32223;53.654;10.014;2023-09-18T09:06:52;21.50;99.90
46508;DHT22;32223;53.654;10.014;2023-09-18T09:09:18;21.60;99.90
46508;DHT22;32223;53.654;10.014;2023-09-18T09:11:51;21.70;99.90
46508;DHT22;32223;53.654;10.014;2023-09-18T09:14:16;21.80;99.90
46508;DHT22;32223;53.654;10.014;2023-09-18T09:16:51;21.90;99.90
46508;DHT22;32223;53.654;10.014;2023-09-18T09:19:17;21.90;99.90
46508;DHT22;32223;53.654;10.014;2023-09-18T09:21:44;21.90;99.90
46508;DHT22;32223;53.654;10.014;2023-09-18T09:24:11;21.80;99.90
46508;DHT22;32223;53.654;10.014;2023-09-18T09:26:40;21.80;99.90
46508;DHT22;32223;53.654;10.014;2023-09-18T09:29:19;21.80;99.90
46508;DHT22;32223;53.654;10.014;2023-09-18T09:31:46;22.00;99.90
46508;DHT22;32223;53.654;10.014;2023-09-18T09:34:12;22.20;99.90
46508;DHT22;32223;53.654;10.014;2023-09-18T09:36:56;22.40;99.90
46508;DHT22;32223;53.654;10.014;2023-09-18T09:39:22;22.70;99.90
46508;DHT22;32223;53.654;10.014;2023-09-18T09:41:51;22.90;99.90
46508;DHT22;32223;53.654;10.014;2023-09-18T09:44:17;23.10;99.90
46508;DHT22;32223;53.654;10.014;2023-09-18T09:46:50;23.10;99.90
46508;DHT22;32223;53.654;10.014;2023-09-18T09:49:17;23.10;99.90
46508;DHT22;32223;53.654;10.014;2023-09-18T09:51:45;23.10;99.90
46508;DHT22;32223;53.654;10.014;2023-09-18T09:54:11;23.20;99.90
46508;DHT22;32223;53.654;10.014;2023-09-18T09:56:48;23.20;99.90
46508;DHT22;32223;53.654;10.014;2023-09-18T09:59:16;23.30;99.90
46508;DHT22;32223;53.654;10.014;2023-09-18T10:01:43;23.30;99.90
46508;DHT22;32223;53.654;10.014;2023-09-18T10:04:16;23.30;99.90
46508;DHT22;32223;53.654;10.014;2023-09-18T10:07:06;23.20;99.90
46508;DHT22;32223;53.654;10.014;2023-09-18T10:09:34;23.20;99.90
46508;DHT22;32223;53.654;10.014;2023-09-18T10:12:01;23.40;99.90
46508;DHT22;32223;53.654;10.014;2023-09-18T10:14:31;23.40;99.90
46508;DHT22;32223;53.654;10.014;2023-09-18T10:17:01;23.40;99.90
46508;DHT22;32223;53.654;10.014;2023-09-18T10:19:49;23.50;99.90
46508;DHT22;32223;53.654;10.014;2023-09-18T10:22:36;23.40;99.90
46508;DHT22;32223;53.654;10.014;2023-09-18T10:25:17;23.40;99.90
46508;DHT22;32223;53.654;10.014;2023-09-18T10:27:48;23.40;99.90
46508;DHT22;32223;53.654;10.014;2023-09-18T10:30:16;23.40;99.90
46508;DHT22;32223;53.654;10.014;2023-09-18T10:32:44;23.50;99.90
46508;DHT22;32223;53.654;10.014;2023-09-18T10:35:14;23.60;99.90
46508;DHT22;32223;53.654;10.014;2023-09-18T10:37:42;23.70;99.90
46508;DHT22;32223;53.654;10.014;2023-09-18T10:40:09;23.90;99.90
46508;DHT22;32223;53.654;10.014;2023-09-18T10:42:39;23.90;99.90
46508;DHT22;32223;53.654;10.014;2023-09-18T10:45:09;23.90;99.90
46508;DHT22;32223;53.654;10.014;2023-09-18T10:47:40;23.90;99.90
46508;DHT22;32223;53.654;10.014;2023-09-18T10:50:08;23.90;99.90
46508;DHT22;32223;53.654;10.014;2023-09-18T10:52:35;23.90;99.90
46508;DHT22;32223;53.654;10.014;2023-09-18T10:55:01;23.90;99.90
46508;DHT22;32223;53.654;10.014;2023-09-18T10:57:36;24.00;99.90
46508;DHT22;32223;53.654;10.014;2023-09-18T11:00:03;24.20;99.90
46508;DHT22;32223;53.654;10.014;2023-09-18T11:02:41;24.30;99.90
46508;DHT22;32223;53.654;10.014;2023-09-18T11:05:07;24.40;99.90
46508;DHT22;32223;53.654;10.014;2023-09-18T11:07:33;24.40;99.90
46508;DHT22;32223;53.654;10.014;2023-09-18T11:09:58;24.40;99.90
46508;DHT22;32223;53.654;10.014;2023-09-18T11:12:43;24.50;99.90
46508;DHT22;32223;53.654;10.014;2023-09-18T11:15:09;24.70;99.90
46508;DHT22;32223;53.654;10.014;2023-09-18T11:17:59;24.90;99.90
46508;DHT22;32223;53.654;10.014;2023-09-18T11:20:26;25.00;99.90
46508;DHT22;32223;53.654;10.014;2023-09-18T11:22:57;25.10;99.90
46508;DHT22;32223;53.654;10.014;2023-09-18T11:28:00;24.80;99.90
46508;DHT22;32223;53.654;10.014;2023-09-18T11:30:28;24.80;99.90
46508;DHT22;32223;53.654;10.014;2023-09-18T11:32:54;24.70;99.90
46508;DHT22;32223;53.654;10.014;2023-09-18T11:35:21;24.60;99.90
46508;DHT22;32223;53.654;10.014;2023-09-18T11:37:47;24.60;99.90
46508;DHT22;32223;53.654;10.014;2023-09-18T11:40:33;24.40;99.90
46508;DHT22;32223;53.654;10.014;2023-09-18T11:43:26;24.20;99.90
46508;DHT22;32223;53.654;10.014;2023-09-18T11:45:56;24.20;99.90
46508;DHT22;32223;53.654;10.014;2023-09-18T11:48:26;24.20;99.90
46508;DHT22;32223;53.654;10.014;2023-09-18T11:50:57;24.30;99.90
46508;DHT22;32223;53.654;10.014;2023-09-18T11:53:24;24.30;99.90
46508;DHT22;32223;53.654;10.014;2023-09-18T11:55:52;24.20;99.90
46508;DHT22;32223;53.654;10.014;2023-09-18T11:58:17;24.20;99.90
46508;DHT22;32223;53.654;10.014;2023-09-18T12:00:47;24.20;99.90
46508;DHT22;32223;53.654;10.014;2023-09-18T12:03:17;24.20;99.90
46508;DHT22;32223;53.654;10.014;2023-09-18T12:06:12;24.20;99.90
46508;DHT22;32223;53.654;10.014;2023-09-18T12:08:41;24.20;99.90
46508;DHT22;32223;53.654;10.014;2023-09-18T12:11:07;24.20;99.90
46508;DHT22;32223;53.654;10.014;2023-09-18T12:13:33;24.10;99.90
46508;DHT22;32223;53.654;10.014;2023-09-18T12:16:00;23.90;99.90
46508;DHT22;32223;53.654;10.014;2023-09-18T12:18:27;23.90;99.90
46508;DHT22;32223;53.654;10.014;2023-09-18T12:20:55;23.90;99.90
46508;DHT22;32223;53.654;10.014;2023-09-18T12:23:22;23.90;99.90
46508;DHT22;32223;53.654;10.014;2023-09-18T12:25:56;24.00;99.90
46508;DHT22;32223;53.654;10.014;2023-09-18T12:28:25;24.10;99.90
46508;DHT22;32223;53.654;10.014;2023-09-18T12:30:52;24.20;99.90
46508;DHT22;32223;53.654;10.014;2023-09-18T12:33:22;24.40;99.90
46508;DHT22;32223;53.654;10.014;2023-09-18T12:35:47;24.60;99.90
46508;DHT22;32223;53.654;10.014;2023-09-18T12:38:16;24.70;99.90
46508;DHT22;32223;53.654;10.014;2023-09-18T12:40:43;24.70;99.90
46508;DHT22;32223;53.654;10.014;2023-09-18T12:43:12;24.80;99.90
46508;DHT22;32223;53.654;10.014;2023-09-18T12:45:38;25.20;99.90
46508;DHT22;32223;53.654;10.014;2023-09-18T12:48:05;25.10;99.90
46508;DHT22;32223;53.654;10.014;2023-09-18T12:50:31;25.00;99.90
46508;DHT22;32223;53.654;10.014;2023-09-18T12:53:10;24.70;99.90
46508;DHT22;32223;53.654;10.014;2023-09-18T12:55:37;25.00;99.90
46508;DHT22;32223;53.654;10.014;2023-09-18T12:58:03;25.20;99.90
46508;DHT22;32223;53.654;10.014;2023-09-18T13:00:35;25.40;99.90
46508;DHT22;32223;53.654;10.014;2023-09-18T13:03:01;26.10;99.90
46508;DHT22;32223;53.654;10.014;2023-09-18T13:05:30;26.50;99.90
46508;DHT22;32223;53.654;10.014;2023-09-18T13:08:04;26.60;99.90
46508;DHT22;32223;53.654;10.014;2023-09-18T13:10:46;26.50;99.90
46508;DHT22;32223;53.654;10.014;2023-09-18T13:13:20;26.40;99.90
46508;DHT22;32223;53.654;10.014;2023-09-18T13:15:47;26.00;99.90
46508;DHT22;32223;53.654;10.014;2023-09-18T13:18:14;25.70;99.90
46508;DHT22;32223;53.654;10.014;2023-09-18T13:20:41;25.50;99.90
46508;DHT22;32223;53.654;10.014;2023-09-18T13:23:07;26.00;99.90
46508;DHT22;32223;53.654;10.014;2023-09-18T13:25:36;26.20;99.90
46508;DHT22;32223;53.654;10.014;2023-09-18T13:28:04;26.30;99.90
46508;DHT22;32223;53.654;10.014;2023-09-18T13:30:31;26.30;99.90
46508;DHT22;32223;53.654;10.014;2023-09-18T13:33:04;26.00;99.90
46508;DHT22;32223;53.654;10.014;2023-09-18T13:35:31;25.50;99.90
46508;DHT22;32223;53.654;10.014;2023-09-18T13:37:57;25.00;99.90
46508;DHT22;32223;53.654;10.014;2023-09-18T13:40:23;24.60;99.90
46508;DHT22;32223;53.654;10.014;2023-09-18T13:42:49;24.30;99.90
46508;DHT22;32223;53.654;10.014;2023-09-18T13:45:14;24.10;99.90
46508;DHT22;32223;53.654;10.014;2023-09-18T13:47:42;24.00;99.90
46508;DHT22;32223;53.654;10.014;2023-09-18T13:50:08;24.00;99.90
46508;DHT22;32223;53.654;10.014;2023-09-18T13:52:35;24.10;99.90
46508;DHT22;32223;53.654;10.014;2023-09-18T13:55:04;24.00;99.90
46508;DHT22;32223;53.654;10.014;2023-09-18T13:57:34;23.90;99.90
46508;DHT22;32223;53.654;10.014;2023-09-18T14:00:02;23.80;99.90
46508;DHT22;32223;53.654;10.014;2023-09-18T14:02:32;23.80;99.90
46508;DHT22;32223;53.654;10.014;2023-09-18T14:04:59;23.80;99.90
46508;DHT22;32223;53.654;10.014;2023-09-18T14:07:25;23.70;99.90
46508;DHT22;32223;53.654;10.014;2023-09-18T14:09:50;23.60;99.90
46508;DHT22;32223;53.654;10.014;2023-09-18T14:12:16;23.60;99.90
46508;DHT22;32223;53.654;10.014;2023-09-18T14:14:42;23.70;99.90
46508;DHT22;32223;53.654;10.014;2023-09-18T14:17:09;23.70;99.90
46508;DHT22;32223;53.654;10.014;2023-09-18T14:19:35;23.70;99.90
46508;DHT22;32223;53.654;10.014;2023-09-18T14:22:06;23.60;99.90
46508;DHT22;32223;53.654;10.014;2023-09-18T14:24:32;23.60;99.90
46508;DHT22;32223;53.654;10.014;2023-09-18T14:27:00;23.60;99.90
46508;DHT22;32223;53.654;10.014;2023-09-18T14:29:26;23.70;99.90
46508;DHT22;32223;53.654;10.014;2023-09-18T14:31:52;23.90;99.90
46508;DHT22;32223;53.654;10.014;2023-09-18T14:34:18;24.10;99.90
46508;DHT22;32223;53.654;10.014;2023-09-18T14:36:44;24.30;99.90
46508;DHT22;32223;53.654;10.014;2023-09-18T14:39:10;24.60;99.90
46508;DHT22;32223;53.654;10.014;2023-09-18T14:41:37;25.10;99.90
46508;DHT22;32223;53.654;10.014;2023-09-18T14:44:07;25.90;99.90
46508;DHT22;32223;53.654;10.014;2023-09-18T14:46:34;26.60;99.90
46508;DHT22;32223;53.654;10.014;2023-09-18T14:49:01;27.70;99.90
46508;DHT22;32223;53.654;10.014;2023-09-18T14:51:27;27.90;99.90
46508;DHT22;32223;53.654;10.014;2023-09-18T14:53:54;28.40;99.90
46508;DHT22;32223;53.654;10.014;2023-09-18T14:56:20;28.70;99.90
46508;DHT22;32223;53.654;10.014;2023-09-18T14:58:45;28.40;99.90
46508;DHT22;32223;53.654;10.014;2023-09-18T15:01:11;28.10;99.90
46508;DHT22;32223;53.654;10.014;2023-09-18T15:03:37;27.60;99.90
46508;DHT22;32223;53.654;10.014;2023-09-18T15:06:03;27.00;99.90
46508;DHT22;32223;53.654;10.014;2023-09-18T15:08:28;26.50;99.90
46508;DHT22;32223;53.654;10.014;2023-09-18T15:10:54;26.00;99.90
46508;DHT22;32223;53.654;10.014;2023-09-18T15:13:20;25.80;99.90
46508;DHT22;32223;53.654;10.014;2023-09-18T15:15:46;25.90;99.90
46508;DHT22;32223;53.654;10.014;2023-09-18T15:18:12;26.10;99.90
46508;DHT22;32223;53.654;10.014;2023-09-18T15:20:37;26.80;99.90